Atlanta, Nebraska
Current Conditions -  °F | °C
As of 6:15 PM on Thursday 18 Dec 2014 (Local Time) from KHDE Reporting Station
Overcast Overcast  
Wind Chill: 22°   Ceiling: 1000
Heat Index: 28°   Visibility: 10mi
Dew Point: 26°   Wind: 6mph
Humidity: 89%   Direction: 250°WSW
Pressure: 30.13"   Gusts: NA
Location:  40.37°N, 99.47°W
Report Text: KHDE 190015Z AUTO 25005KT 10SM OVC010 M02/M04 A3013 RMK AO2 T10201036
Loading
Personal Weather Stations






























Interactive Weather Map New forecast layout! Learn more

10-Day Weather Forecast

Advertisements
Track Severe Weather on mobile